Time;durP1;ratioP1;P1;durP2;ratioP2;P2;SDS_P1;SDS_P2;PMS_P1;PMS_P2;Temp;Humidity;BMP_temperature;BMP_pressure;BME280_temperature;BME280_humidity;BME280_pressure;Samples;Min_cycle;Max_cycle;Signal;HPM_P1;HPM_P2
2022/12/21 00:01:44;;;;;;;49.15;18.65;;;;;;;;;;5056376;28;20396;-78
2022/12/21 00:04:10;;;;;;;51.83;18.67;;;;;;;;;;5056286;28;20040;-78
2022/12/21 00:06:37;;;;;;;59.65;20.13;;;;;;;;;;5039688;28;20025;-78
2022/12/21 00:09:04;;;;;;;61.08;19.63;;;;;;;;;;5056246;28;20025;-79
2022/12/21 00:11:30;;;;;;;61.28;21.35;;;;;;;;;;5073505;28;20362;-79
2022/12/21 00:13:56;;;;;;;57.35;20.70;;;;;;;;;;5074184;28;20098;-78
2022/12/21 00:16:23;;;;;;;55.95;19.75;;;;;;;;;;5074055;28;20133;-78
2022/12/21 00:18:48;;;;;;;50.05;18.27;;;;;;;;;;5056094;28;20356;-78
2022/12/21 00:21:16;;;;;;;48.83;18.67;;;;;;;;;;5039326;28;20119;-80
2022/12/21 00:23:42;;;;;;;57.00;19.52;;;;;;;;;;5073918;28;20105;-78
2022/12/21 00:26:08;;;;;;;45.38;17.20;;;;;;;;;;5055668;28;20071;-78
2022/12/21 00:28:34;;;;;;;55.50;18.80;;;;;;;;;;5056039;28;20495;-78
2022/12/21 00:31:29;;;;;;;66.50;22.50;;;;;;;;;;5022660;28;20365;-79
2022/12/21 00:33:54;;;;;;;63.65;19.95;;;;;;;;;;5056137;28;20086;-79
2022/12/21 00:36:20;;;;;;;48.00;18.08;;;;;;;;;;5039433;28;20040;-78
2022/12/21 00:38:49;;;;;;;49.03;17.88;;;;;;;;;;5056215;28;20033;-78
2022/12/21 00:41:16;;;;;;;55.30;18.48;;;;;;;;;;5055956;28;20442;-79
2022/12/21 00:43:42;;;;;;;51.63;19.10;;;;;;;;;;5056215;28;20040;-79
2022/12/21 00:46:10;;;;;;;62.55;19.88;;;;;;;;;;5056125;28;20146;-79
2022/12/21 00:48:36;;;;;;;67.57;19.45;;;;;;;;;;5058177;28;20117;-79
2022/12/21 00:51:05;;;;;;;57.35;19.42;;;;;;;;;;5080679;28;20111;-79
2022/12/21 00:53:31;;;;;;;52.72;18.85;;;;;;;;;;5083561;28;20048;-78
2022/12/21 00:55:57;;;;;;;58.50;18.95;;;;;;;;;;5077601;28;20036;-78
2022/12/21 00:58:26;;;;;;;49.35;17.80;;;;;;;;;;5056652;28;20142;-78
2022/12/21 01:00:55;;;;;;;47.88;17.73;;;;;;;;;;5056987;28;20047;-78
2022/12/21 01:03:21;;;;;;;59.35;18.67;;;;;;;;;;5055638;28;20135;-78
2022/12/21 01:05:47;;;;;;;71.95;23.05;;;;;;;;;;5055907;28;20064;-79
2022/12/21 01:08:13;;;;;;;75.07;21.45;;;;;;;;;;5055539;28;20033;-78
2022/12/21 01:10:39;;;;;;;58.63;20.90;;;;;;;;;;5039277;28;20428;-79
2022/12/21 01:13:04;;;;;;;53.85;19.48;;;;;;;;;;5073319;28;20029;-79
2022/12/21 01:15:29;;;;;;;49.55;18.50;;;;;;;;;;5073492;28;20154;-79
2022/12/21 01:17:55;;;;;;;61.22;20.40;;;;;;;;;;5073539;28;20086;-79
2022/12/21 01:20:21;;;;;;;50.67;18.30;;;;;;;;;;5055388;28;20028;-79
2022/12/21 01:22:46;;;;;;;50.75;18.45;;;;;;;;;;5074161;28;20092;-79
2022/12/21 01:25:12;;;;;;;55.15;19.23;;;;;;;;;;5058812;28;20178;-79
2022/12/21 01:27:37;;;;;;;51.38;18.00;;;;;;;;;;5026054;28;20029;-79
2022/12/21 01:30:05;;;;;;;55.67;20.83;;;;;;;;;;5076779;28;20044;-79
2022/12/21 01:32:31;;;;;;;53.75;18.63;;;;;;;;;;5026080;28;20037;-79
2022/12/21 01:34:56;;;;;;;48.00;17.17;;;;;;;;;;5076882;28;20039;-79
2022/12/21 01:37:22;;;;;;;52.75;18.60;;;;;;;;;;5076587;28;20060;-79
2022/12/21 01:39:48;;;;;;;50.20;17.88;;;;;;;;;;5076804;28;20089;-79
2022/12/21 01:42:13;;;;;;;55.95;17.98;;;;;;;;;;5076469;28;20025;-80
2022/12/21 01:45:02;;;;;;;48.55;17.70;;;;;;;;;;5076617;28;20094;-79
2022/12/21 01:47:36;;;;;;;46.10;16.77;;;;;;;;;;5042663;28;20047;-79
2022/12/21 01:50:32;;;;;;;52.75;18.10;;;;;;;;;;5042954;28;20040;-79
2022/12/21 01:53:00;;;;;;;47.22;17.17;;;;;;;;;;5061202;28;20046;-77
2022/12/21 01:55:25;;;;;;;51.50;17.65;;;;;;;;;;5041935;28;20036;-77
2022/12/21 01:57:51;;;;;;;52.58;17.13;;;;;;;;;;5058573;28;20074;-76
2022/12/21 02:00:16;;;;;;;58.72;18.40;;;;;;;;;;5042048;28;20036;-77
2022/12/21 02:02:49;;;;;;;48.78;16.30;;;;;;;;;;5058457;28;20028;-77
2022/12/21 02:05:30;;;;;;;48.55;17.63;;;;;;;;;;5042094;28;20043;-80
2022/12/21 02:07:57;;;;;;;52.75;17.00;;;;;;;;;;5058121;28;20033;-79
2022/12/21 02:10:22;;;;;;;42.97;16.33;;;;;;;;;;5057979;28;20532;-79
2022/12/21 02:12:48;;;;;;;49.90;17.05;;;;;;;;;;5025235;28;20119;-79
2022/12/21 02:15:13;;;;;;;55.47;18.38;;;;;;;;;;5041483;28;20117;-79
2022/12/21 02:18:05;;;;;;;50.83;17.23;;;;;;;;;;5076512;28;20064;-78
2022/12/21 02:20:56;;;;;;;45.92;16.67;;;;;;;;;;5057634;28;20381;-79
2022/12/21 02:23:49;;;;;;;49.65;16.73;;;;;;;;;;5076310;28;20036;-79
2022/12/21 02:26:45;;;;;;;47.55;17.30;;;;;;;;;;5061709;28;20048;-79
2022/12/21 02:29:41;;;;;;;42.70;16.10;;;;;;;;;;5068122;28;20048;-78
2022/12/21 02:32:31;;;;;;;50.10;17.05;;;;;;;;;;5066409;28;20029;-79
2022/12/21 02:35:21;;;;;;;46.58;16.92;;;;;;;;;;5067675;28;20096;-79
2022/12/21 02:37:59;;;;;;;50.50;18.48;;;;;;;;;;5054480;28;20040;-79
2022/12/21 02:40:33;;;;;;;53.15;17.63;;;;;;;;;;5050962;28;20056;-78
2022/12/21 02:46:37;;;;;;;53.55;19.02;;;;;;;;;;5076695;28;20093;-80
2022/12/21 02:49:17;;;;;;;53.53;18.50;;;;;;;;;;5072724;28;20123;-79
2022/12/21 02:51:51;;;;;;;46.78;16.73;;;;;;;;;;5057342;28;20036;-79
2022/12/21 02:54:16;;;;;;;51.35;18.17;;;;;;;;;;5057580;28;20047;-79
2022/12/21 02:56:42;;;;;;;46.92;16.35;;;;;;;;;;5057374;28;20064;-79
2022/12/21 02:59:08;;;;;;;49.33;18.58;;;;;;;;;;5075164;28;20403;-80
2022/12/21 03:02:12;;;;;;;52.90;18.42;;;;;;;;;;5040477;28;20037;-79
2022/12/21 03:04:37;;;;;;;45.63;17.63;;;;;;;;;;5040135;28;20043;-79
2022/12/21 03:07:37;;;;;;;45.10;16.92;;;;;;;;;;5075004;28;20032;-79
2022/12/21 03:10:41;;;;;;;48.85;16.80;;;;;;;;;;5056853;28;20020;-78
2022/12/21 03:13:41;;;;;;;46.67;18.00;;;;;;;;;;5040026;28;20123;-78
2022/12/21 03:16:23;;;;;;;50.72;18.65;;;;;;;;;;5042218;28;20028;-79
2022/12/21 03:18:56;;;;;;;49.50;18.13;;;;;;;;;;5040477;28;20068;-78
2022/12/21 03:21:25;;;;;;;48.28;16.52;;;;;;;;;;5056901;28;20039;-78
2022/12/21 03:24:12;;;;;;;55.50;18.57;;;;;;;;;;5074619;28;20161;-79
2022/12/21 03:26:51;;;;;;;51.15;17.67;;;;;;;;;;5074622;28;20115;-78
2022/12/21 03:29:19;;;;;;;50.83;18.50;;;;;;;;;;5041749;28;20044;-78
2022/12/21 03:31:47;;;;;;;55.72;19.83;;;;;;;;;;5073359;28;20279;-78
2022/12/21 03:34:34;;;;;;;51.78;19.00;;;;;;;;;;5089620;28;20044;-79
2022/12/21 03:37:10;;;;;;;49.33;17.42;;;;;;;;;;5056572;28;20032;-78
2022/12/21 03:39:37;;;;;;;52.97;19.02;;;;;;;;;;5056329;28;20433;-78
2022/12/21 03:42:23;;;;;;;51.20;19.48;;;;;;;;;;5039745;28;20048;-78
2022/12/21 03:44:56;;;;;;;55.97;20.38;;;;;;;;;;5056242;28;20071;-78
2022/12/21 03:47:50;;;;;;;55.75;18.35;;;;;;;;;;5039889;28;20064;-78
2022/12/21 03:50:27;;;;;;;49.17;16.98;;;;;;;;;;5056843;28;20032;-78
2022/12/21 03:53:01;;;;;;;51.08;17.98;;;;;;;;;;5039777;28;20028;-78
2022/12/21 03:55:29;;;;;;;54.05;18.63;;;;;;;;;;5056441;28;20055;-78
2022/12/21 03:57:54;;;;;;;49.97;19.23;;;;;;;;;;5023199;28;20044;-78
2022/12/21 04:03:12;;;;;;;48.45;17.27;;;;;;;;;;5044374;28;20039;-78
2022/12/21 04:05:44;;;;;;;45.08;16.55;;;;;;;;;;5039744;28;20437;-78
2022/12/21 04:08:09;;;;;;;48.28;17.70;;;;;;;;;;5039753;28;20032;-78
2022/12/21 04:10:35;;;;;;;45.72;17.10;;;;;;;;;;5039301;28;20037;-77
2022/12/21 04:13:00;;;;;;;49.67;17.50;;;;;;;;;;5056236;28;20131;-78
2022/12/21 04:16:03;;;;;;;50.55;19.50;;;;;;;;;;5056177;28;20033;-78
2022/12/21 04:18:12;;;;;;;56.55;18.55;;;;;;;;;;5044860;28;20453;-78
2022/12/21 04:20:37;;;;;;;45.33;16.52;;;;;;;;;;5072839;28;20032;-78
2022/12/21 04:28:31;;;;;;;49.55;17.55;;;;;;;;;;5073460;28;20413;-78
2022/12/21 04:30:58;;;;;;;49.05;18.55;;;;;;;;;;5073764;28;20033;-78
2022/12/21 04:33:23;;;;;;;47.60;18.02;;;;;;;;;;5055906;28;20093;-78
2022/12/21 04:38:34;;;;;;;47.17;16.42;;;;;;;;;;5073558;28;20031;-78
2022/12/21 04:41:00;;;;;;;49.60;19.52;;;;;;;;;;5056216;28;20073;-78
2022/12/21 04:43:25;;;;;;;44.53;17.08;;;;;;;;;;5022656;28;20040;-78
2022/12/21 04:46:05;;;;;;;52.58;17.77;;;;;;;;;;5039076;28;20347;-78
2022/12/21 04:48:31;;;;;;;50.93;18.03;;;;;;;;;;5072611;28;20037;-77
2022/12/21 04:50:56;;;;;;;51.20;17.50;;;;;;;;;;5022925;28;20277;-78
2022/12/21 04:53:22;;;;;;;52.63;17.42;;;;;;;;;;5055597;28;20082;-78
2022/12/21 04:55:47;;;;;;;49.97;18.20;;;;;;;;;;5055709;28;20032;-79
2022/12/21 04:58:12;;;;;;;54.40;19.38;;;;;;;;;;5057471;28;20040;-78
2022/12/21 05:00:38;;;;;;;50.42;17.92;;;;;;;;;;5093012;28;20436;-78
2022/12/21 05:03:03;;;;;;;57.47;20.55;;;;;;;;;;5077332;28;20036;-79
2022/12/21 05:05:29;;;;;;;54.15;19.20;;;;;;;;;;5042713;28;20029;-78
2022/12/21 05:07:55;;;;;;;56.28;18.58;;;;;;;;;;5042914;28;20030;-79
2022/12/21 05:10:20;;;;;;;49.42;17.77;;;;;;;;;;5059139;28;20033;-78
2022/12/21 05:12:46;;;;;;;47.28;16.58;;;;;;;;;;5059286;28;20472;-79
2022/12/21 05:15:13;;;;;;;50.63;18.70;;;;;;;;;;5058943;28;20043;-81
2022/12/21 05:17:41;;;;;;;52.20;17.88;;;;;;;;;;5059512;28;20042;-79
2022/12/21 05:20:07;;;;;;;54.15;18.73;;;;;;;;;;5077294;28;20036;-78
2022/12/21 05:22:32;;;;;;;48.60;18.05;;;;;;;;;;5077022;28;20028;-79
2022/12/21 05:24:58;;;;;;;45.17;17.58;;;;;;;;;;5077002;28;20043;-79
2022/12/21 05:27:42;;;;;;;44.03;16.02;;;;;;;;;;5059390;28;20048;-79
2022/12/21 05:30:08;;;;;;;54.15;17.45;;;;;;;;;;5061469;28;20377;-79
2022/12/21 05:32:33;;;;;;;53.15;18.17;;;;;;;;;;5058751;28;20044;-79
2022/12/21 05:34:58;;;;;;;49.50;16.80;;;;;;;;;;5056969;28;20029;-78
2022/12/21 05:37:24;;;;;;;51.33;19.02;;;;;;;;;;5077179;28;20093;-79
2022/12/21 05:39:49;;;;;;;54.00;18.50;;;;;;;;;;5059135;28;20115;-78
2022/12/21 05:42:19;;;;;;;58.15;19.40;;;;;;;;;;5077259;28;20162;-78
2022/12/21 05:44:44;;;;;;;56.35;19.35;;;;;;;;;;5041715;28;20057;-79
2022/12/21 05:47:09;;;;;;;57.78;20.33;;;;;;;;;;5056606;28;20036;-77
2022/12/21 05:49:36;;;;;;;58.78;20.10;;;;;;;;;;5069367;28;20024;-78
2022/12/21 05:52:01;;;;;;;51.45;19.65;;;;;;;;;;5076450;28;20461;-78
2022/12/21 05:54:34;;;;;;;62.47;21.30;;;;;;;;;;5055003;28;20054;-77
2022/12/21 05:57:00;;;;;;;45.75;18.20;;;;;;;;;;5065378;28;20045;-78
2022/12/21 05:59:29;;;;;;;66.38;20.38;;;;;;;;;;5069424;28;20036;-78
2022/12/21 06:01:59;;;;;;;58.75;19.80;;;;;;;;;;5028742;28;20044;-80
2022/12/21 06:04:24;;;;;;;56.35;20.02;;;;;;;;;;5051326;28;20105;-79
2022/12/21 06:06:50;;;;;;;58.13;20.15;;;;;;;;;;5072874;28;20036;-79
2022/12/21 06:09:15;;;;;;;52.67;18.33;;;;;;;;;;5073190;28;20036;-80
2022/12/21 06:11:41;;;;;;;49.85;18.13;;;;;;;;;;5054142;28;20421;-77
2022/12/21 06:14:07;;;;;;;47.88;17.95;;;;;;;;;;5076254;28;20048;-78
2022/12/21 06:16:32;;;;;;;48.05;17.58;;;;;;;;;;5087153;28;20044;-79
2022/12/21 06:18:58;;;;;;;52.15;17.90;;;;;;;;;;5050870;28;20369;-78
2022/12/21 06:21:23;;;;;;;68.40;23.98;;;;;;;;;;5052263;28;20456;-78
2022/12/21 06:23:48;;;;;;;149.80;63.83;;;;;;;;;;5051118;28;20044;-79
2022/12/21 06:26:18;;;;;;;101.15;41.45;;;;;;;;;;5069564;28;20031;-78
2022/12/21 06:28:50;;;;;;;58.90;21.23;;;;;;;;;;5063696;28;20050;-78
2022/12/21 06:31:16;;;;;;;52.53;20.58;;;;;;;;;;5052753;28;20130;-80
2022/12/21 06:33:41;;;;;;;59.13;19.23;;;;;;;;;;5056875;28;20120;-80
2022/12/21 06:36:07;;;;;;;48.70;17.67;;;;;;;;;;5052773;28;20147;-79
2022/12/21 06:38:33;;;;;;;46.42;17.17;;;;;;;;;;5072217;28;20028;-79
2022/12/21 06:41:00;;;;;;;39.83;16.52;;;;;;;;;;5072774;28;20028;-80
2022/12/21 06:43:26;;;;;;;54.90;18.95;;;;;;;;;;5038849;28;20040;-80
2022/12/21 06:45:56;;;;;;;50.17;17.95;;;;;;;;;;5023484;28;20025;-78
2022/12/21 06:48:22;;;;;;;45.40;18.15;;;;;;;;;;5052090;28;20036;-77
2022/12/21 06:50:54;;;;;;;48.50;19.67;;;;;;;;;;5025836;28;20097;-80
2022/12/21 06:53:29;;;;;;;44.30;17.92;;;;;;;;;;5042584;28;20047;-80
2022/12/21 06:56:11;;;;;;;50.08;18.63;;;;;;;;;;5074993;28;20031;-79
2022/12/21 06:58:37;;;;;;;42.38;16.30;;;;;;;;;;5037382;28;20059;-79
2022/12/21 07:01:10;;;;;;;49.53;17.38;;;;;;;;;;5054716;28;20453;-80
2022/12/21 07:03:35;;;;;;;43.33;16.48;;;;;;;;;;5071861;28;20441;-81
2022/12/21 07:06:01;;;;;;;48.83;17.40;;;;;;;;;;5055235;28;20036;-80
2022/12/21 07:08:27;;;;;;;47.00;17.00;;;;;;;;;;5075302;28;20037;-80
2022/12/21 07:11:00;;;;;;;45.10;16.65;;;;;;;;;;5058924;28;20127;-82
2022/12/21 07:13:26;;;;;;;42.40;16.58;;;;;;;;;;5071376;28;20039;-82
2022/12/21 07:15:51;;;;;;;45.03;17.45;;;;;;;;;;5053840;28;20040;-81
2022/12/21 07:18:17;;;;;;;45.00;17.10;;;;;;;;;;5072718;28;20504;-80
2022/12/21 07:20:43;;;;;;;48.97;17.98;;;;;;;;;;5054069;28;20034;-82
2022/12/21 07:23:08;;;;;;;109.45;47.42;;;;;;;;;;5054371;28;20032;-82
2022/12/21 07:25:34;;;;;;;114.05;50.13;;;;;;;;;;5072636;28;20033;-80
2022/12/21 07:27:59;;;;;;;81.38;31.80;;;;;;;;;;5054873;28;20399;-79
2022/12/21 07:30:25;;;;;;;60.15;24.67;;;;;;;;;;5038423;28;20412;-78
2022/12/21 07:32:53;;;;;;;50.10;21.02;;;;;;;;;;5072941;28;20037;-80
2022/12/21 07:35:22;;;;;;;44.53;17.92;;;;;;;;;;5074004;28;20107;-78
2022/12/21 07:37:48;;;;;;;43.15;16.65;;;;;;;;;;5054956;28;20048;-76
2022/12/21 07:40:15;;;;;;;43.38;17.27;;;;;;;;;;5055419;28;20083;-79
2022/12/21 07:42:53;;;;;;;43.33;17.15;;;;;;;;;;5072818;28;20143;-78
2022/12/21 07:45:18;;;;;;;40.72;13.85;;;;;;;;;;5067925;28;20478;-80
2022/12/21 07:47:47;;;;;;;45.33;16.40;;;;;;;;;;5064148;28;20032;-80
2022/12/21 07:50:12;;;;;;;49.22;18.38;;;;;;;;;;5065944;28;20028;-79
2022/12/21 07:52:39;;;;;;;62.70;18.70;;;;;;;;;;5065378;28;20032;-77
2022/12/21 07:55:06;;;;;;;46.65;17.35;;;;;;;;;;5069922;28;20127;-79
2022/12/21 07:57:31;;;;;;;44.63;16.98;;;;;;;;;;5053620;28;20139;-78
2022/12/21 07:59:56;;;;;;;68.85;26.42;;;;;;;;;;5071894;28;20027;-77
2022/12/21 08:02:22;;;;;;;56.53;23.00;;;;;;;;;;5070679;28;20040;-79
2022/12/21 08:04:47;;;;;;;56.05;22.00;;;;;;;;;;5070708;28;20460;-77
2022/12/21 08:07:13;;;;;;;48.78;20.55;;;;;;;;;;5070940;28;20581;-77
2022/12/21 08:09:38;;;;;;;55.15;20.95;;;;;;;;;;5070764;28;20418;-78
2022/12/21 08:12:04;;;;;;;56.38;21.10;;;;;;;;;;5070306;28;20131;-78
2022/12/21 08:14:29;;;;;;;73.00;24.13;;;;;;;;;;5051838;28;20132;-78
2022/12/21 08:16:55;;;;;;;67.75;22.65;;;;;;;;;;5070215;28;20123;-78
2022/12/21 08:19:21;;;;;;;57.53;23.13;;;;;;;;;;5052451;28;20040;-78
2022/12/21 08:21:46;;;;;;;55.65;21.45;;;;;;;;;;5062900;28;20112;-78
2022/12/21 08:24:13;;;;;;;59.83;22.42;;;;;;;;;;5051055;28;20462;-78
2022/12/21 08:26:39;;;;;;;52.08;20.83;;;;;;;;;;5051661;28;20033;-78
2022/12/21 08:29:05;;;;;;;62.42;21.42;;;;;;;;;;5040978;28;20036;-78
2022/12/21 08:31:30;;;;;;;57.55;21.23;;;;;;;;;;5055792;28;20067;-78
2022/12/21 08:33:56;;;;;;;57.45;21.80;;;;;;;;;;5074900;28;20404;-78
2022/12/21 08:36:22;;;;;;;54.63;21.15;;;;;;;;;;5076467;28;20042;-79
2022/12/21 08:38:48;;;;;;;62.65;23.40;;;;;;;;;;5055963;28;20443;-77
2022/12/21 08:41:14;;;;;;;63.38;24.05;;;;;;;;;;5030173;28;20032;-77
2022/12/21 08:43:40;;;;;;;62.65;23.42;;;;;;;;;;5055908;28;20033;-78
2022/12/21 08:46:07;;;;;;;62.00;24.35;;;;;;;;;;5047883;28;20029;-77
2022/12/21 08:48:32;;;;;;;58.28;21.60;;;;;;;;;;5070484;28;20048;-77
2022/12/21 08:50:58;;;;;;;67.57;26.63;;;;;;;;;;5062355;28;20032;-77
2022/12/21 08:53:24;;;;;;;62.72;25.63;;;;;;;;;;5054870;28;20036;-76
2022/12/21 08:55:50;;;;;;;62.80;24.38;;;;;;;;;;5044687;28;20116;-77
2022/12/21 08:58:16;;;;;;;78.30;29.65;;;;;;;;;;5028285;28;20028;-78
2022/12/21 09:00:45;;;;;;;71.47;28.58;;;;;;;;;;5063829;28;20116;-80
2022/12/21 09:03:16;;;;;;;92.47;40.00;;;;;;;;;;5049779;28;20036;-76
2022/12/21 09:05:42;;;;;;;80.40;31.65;;;;;;;;;;5051518;28;20540;-78
2022/12/21 09:08:08;;;;;;;70.10;28.05;;;;;;;;;;5048495;28;20036;-78
2022/12/21 09:10:34;;;;;;;71.55;28.42;;;;;;;;;;5053502;28;20029;-78
2022/12/21 09:12:59;;;;;;;66.13;23.67;;;;;;;;;;5035914;28;20032;-78
2022/12/21 09:15:25;;;;;;;59.83;21.73;;;;;;;;;;5071549;28;20021;-78
2022/12/21 09:17:50;;;;;;;54.67;19.60;;;;;;;;;;5053452;28;20063;-77
2022/12/21 09:20:16;;;;;;;55.70;22.00;;;;;;;;;;5038517;28;20127;-79
2022/12/21 09:22:41;;;;;;;51.97;19.50;;;;;;;;;;5057258;28;20260;-78
2022/12/21 09:25:07;;;;;;;56.40;21.52;;;;;;;;;;5060208;28;20033;-79
2022/12/21 09:27:33;;;;;;;59.30;20.55;;;;;;;;;;5071836;28;20051;-78
2022/12/21 09:29:58;;;;;;;53.33;21.13;;;;;;;;;;5072031;28;20037;-78
2022/12/21 09:32:24;;;;;;;57.92;24.08;;;;;;;;;;5074814;28;20033;-77
2022/12/21 09:34:50;;;;;;;70.40;27.02;;;;;;;;;;5045125;28;20041;-78
2022/12/21 09:37:24;;;;;;;69.93;26.60;;;;;;;;;;5058642;28;20092;-79
2022/12/21 09:39:50;;;;;;;69.63;29.33;;;;;;;;;;5062094;28;20078;-78
2022/12/21 09:42:31;;;;;;;74.20;30.02;;;;;;;;;;5057988;28;20028;-79
2022/12/21 09:45:11;;;;;;;77.35;31.58;;;;;;;;;;5056602;28;20037;-80
2022/12/21 09:47:43;;;;;;;76.03;30.85;;;;;;;;;;5058115;28;20029;-78
2022/12/21 09:50:34;;;;;;;93.75;31.88;;;;;;;;;;5054936;28;20033;-79
2022/12/21 09:53:03;;;;;;;83.03;27.73;;;;;;;;;;5012649;28;20136;-77
2022/12/21 09:55:42;;;;;;;59.65;22.88;;;;;;;;;;5034544;28;20378;-80
2022/12/21 09:58:13;;;;;;;53.08;20.70;;;;;;;;;;5063007;28;20107;-79
2022/12/21 10:00:41;;;;;;;67.22;23.35;;;;;;;;;;5040309;28;20385;-77
2022/12/21 10:03:29;;;;;;;100.82;31.75;;;;;;;;;;5056479;28;20048;-78
2022/12/21 10:06:05;;;;;;;68.57;25.55;;;;;;;;;;5062615;28;20044;-80
2022/12/21 10:08:35;;;;;;;50.00;19.38;;;;;;;;;;5075771;28;20043;-80
2022/12/21 10:11:03;;;;;;;54.50;20.13;;;;;;;;;;5040195;28;20040;-80
2022/12/21 10:13:53;;;;;;;53.95;19.63;;;;;;;;;;5076095;28;20029;-79
2022/12/21 10:16:21;;;;;;;55.45;20.75;;;;;;;;;;5043011;28;20111;-79
2022/12/21 10:18:54;;;;;;;58.72;22.23;;;;;;;;;;5073024;28;20112;-78
2022/12/21 10:21:39;;;;;;;61.45;22.95;;;;;;;;;;5054475;28;20453;-78
2022/12/21 10:24:05;;;;;;;51.95;20.60;;;;;;;;;;5071810;28;20040;-78
2022/12/21 10:26:37;;;;;;;56.25;22.88;;;;;;;;;;5071756;28;20047;-78
2022/12/21 10:29:17;;;;;;;72.97;30.85;;;;;;;;;;5054706;28;20142;-78
2022/12/21 10:31:46;;;;;;;63.97;25.83;;;;;;;;;;5039001;28;20028;-80
2022/12/21 10:34:24;;;;;;;67.13;25.77;;;;;;;;;;5074338;28;20029;-79
2022/12/21 10:36:57;;;;;;;70.25;24.63;;;;;;;;;;5056369;28;20487;-79
2022/12/21 10:39:23;;;;;;;67.03;24.85;;;;;;;;;;5074437;28;20033;-77
2022/12/21 10:42:11;;;;;;;60.65;23.40;;;;;;;;;;5057467;28;20229;-79
2022/12/21 10:44:40;;;;;;;50.22;20.02;;;;;;;;;;5094982;28;20040;-78
2022/12/21 10:47:21;;;;;;;60.92;23.00;;;;;;;;;;5074962;28;20069;-77
2022/12/21 10:50:04;;;;;;;66.07;24.30;;;;;;;;;;5052204;28;20025;-79
2022/12/21 10:52:36;;;;;;;79.63;27.08;;;;;;;;;;5052861;28;20040;-77
2022/12/21 10:55:02;;;;;;;67.90;24.77;;;;;;;;;;5045515;28;20131;-76
2022/12/21 10:57:29;;;;;;;66.18;26.40;;;;;;;;;;5065041;28;20040;-77
2022/12/21 10:59:58;;;;;;;72.00;26.30;;;;;;;;;;5069264;28;20086;-78
2022/12/21 11:02:37;;;;;;;60.55;24.35;;;;;;;;;;5033539;28;20513;-78
2022/12/21 11:05:02;;;;;;;72.43;26.67;;;;;;;;;;5034204;28;20040;-77
2022/12/21 11:07:28;;;;;;;68.45;27.98;;;;;;;;;;5050206;28;20039;-77
2022/12/21 11:10:02;;;;;;;64.80;23.88;;;;;;;;;;5034841;28;20047;-78
2022/12/21 11:12:28;;;;;;;63.20;25.52;;;;;;;;;;5051178;28;20060;-78
2022/12/21 11:14:55;;;;;;;72.22;27.27;;;;;;;;;;5053109;28;20065;-79
2022/12/21 11:17:26;;;;;;;71.63;26.73;;;;;;;;;;5052880;28;20139;-78
2022/12/21 11:19:59;;;;;;;71.95;27.17;;;;;;;;;;5054203;28;20056;-78
2022/12/21 11:22:30;;;;;;;71.30;28.90;;;;;;;;;;5073520;28;20040;-78
2022/12/21 11:24:56;;;;;;;73.15;28.15;;;;;;;;;;5070901;28;20067;-78
2022/12/21 11:27:32;;;;;;;75.47;27.33;;;;;;;;;;5036523;28;20044;-75
2022/12/21 11:29:57;;;;;;;80.30;30.70;;;;;;;;;;5043533;28;20056;-77
2022/12/21 11:32:23;;;;;;;71.90;28.27;;;;;;;;;;5062860;28;20055;-79
2022/12/21 11:35:00;;;;;;;83.05;31.58;;;;;;;;;;5018304;28;20306;-80
2022/12/21 11:37:37;;;;;;;76.53;30.75;;;;;;;;;;5039755;28;20019;-80
2022/12/21 11:40:24;;;;;;;77.28;29.67;;;;;;;;;;5065142;28;20029;-80
2022/12/21 11:42:55;;;;;;;71.85;27.92;;;;;;;;;;5051486;28;20029;-80
2022/12/21 11:45:22;;;;;;;71.13;27.67;;;;;;;;;;5052801;28;20043;-81
2022/12/21 11:48:00;;;;;;;78.63;28.67;;;;;;;;;;5047224;28;20041;-80
2022/12/21 11:50:36;;;;;;;78.20;29.70;;;;;;;;;;5059864;28;20058;-79
2022/12/21 11:53:11;;;;;;;83.43;29.10;;;;;;;;;;5086792;28;20021;-79
2022/12/21 11:56:00;;;;;;;72.97;26.55;;;;;;;;;;5051614;28;20043;-80
2022/12/21 11:58:38;;;;;;;61.60;23.58;;;;;;;;;;5058074;28;20036;-80
2022/12/21 12:01:18;;;;;;;59.60;24.90;;;;;;;;;;5066652;28;20040;-80
2022/12/21 12:03:53;;;;;;;70.50;26.03;;;;;;;;;;5036117;28;20043;-80
2022/12/21 12:06:25;;;;;;;75.07;27.00;;;;;;;;;;5036795;28;20466;-79
2022/12/21 12:09:07;;;;;;;84.63;32.15;;;;;;;;;;5060080;28;20094;-81
2022/12/21 12:11:58;;;;;;;79.90;29.27;;;;;;;;;;5047421;28;20147;-79
2022/12/21 12:14:30;;;;;;;78.88;29.25;;;;;;;;;;5063351;28;20043;-79
2022/12/21 12:17:18;;;;;;;76.15;30.02;;;;;;;;;;5071949;28;20041;-79
2022/12/21 12:20:10;;;;;;;81.50;28.10;;;;;;;;;;5071579;28;20071;-79
2022/12/21 12:22:51;;;;;;;74.97;28.08;;;;;;;;;;5071136;28;20067;-77
2022/12/21 12:25:26;;;;;;;72.22;28.27;;;;;;;;;;5072019;28;20029;-79
2022/12/21 12:28:14;;;;;;;76.72;30.52;;;;;;;;;;5069895;28;20481;-80
2022/12/21 12:30:59;;;;;;;74.85;29.70;;;;;;;;;;5032909;28;20137;-79
2022/12/21 12:33:52;;;;;;;81.32;28.90;;;;;;;;;;5032199;28;20021;-80
2022/12/21 12:36:23;;;;;;;76.00;29.08;;;;;;;;;;5011039;28;20071;-78
2022/12/21 12:38:58;;;;;;;76.80;27.50;;;;;;;;;;5050767;28;20041;-78
2022/12/21 12:41:29;;;;;;;75.95;29.38;;;;;;;;;;5032974;28;20068;-78
2022/12/21 12:44:04;;;;;;;91.22;32.35;;;;;;;;;;5031798;28;20057;-78
2022/12/21 12:46:51;;;;;;;78.88;27.42;;;;;;;;;;5049094;28;20065;-78
2022/12/21 12:49:16;;;;;;;71.60;26.15;;;;;;;;;;4997977;28;20381;-78
2022/12/21 12:52:14;;;;;;;72.63;27.60;;;;;;;;;;5012796;28;20040;-78
2022/12/21 12:55:03;;;;;;;70.28;25.27;;;;;;;;;;5015823;28;20041;-76
2022/12/21 12:57:40;;;;;;;60.15;23.80;;;;;;;;;;4997342;28;20179;-77
2022/12/21 13:00:13;;;;;;;71.68;27.35;;;;;;;;;;5013591;28;20068;-78
2022/12/21 13:02:43;;;;;;;69.80;25.30;;;;;;;;;;5011318;28;20314;-78
2022/12/21 13:05:15;;;;;;;79.28;28.63;;;;;;;;;;5033399;28;20323;-78
2022/12/21 13:07:55;;;;;;;70.57;25.95;;;;;;;;;;5051791;28;20438;-77
2022/12/21 13:10:27;;;;;;;62.97;23.80;;;;;;;;;;5034139;28;20437;-78
2022/12/21 13:13:04;;;;;;;71.75;27.13;;;;;;;;;;5035399;28;20041;-78
2022/12/21 13:15:32;;;;;;;77.28;27.77;;;;;;;;;;5036053;28;20518;-78
2022/12/21 13:18:04;;;;;;;74.35;28.77;;;;;;;;;;5053000;28;20431;-78
2022/12/21 13:20:30;;;;;;;84.07;29.35;;;;;;;;;;5022481;28;20090;-79
2022/12/21 13:23:14;;;;;;;77.65;28.35;;;;;;;;;;5036757;28;20036;-79
2022/12/21 13:25:52;;;;;;;69.65;26.55;;;;;;;;;;5057649;28;20051;-79
2022/12/21 13:28:21;;;;;;;75.20;28.45;;;;;;;;;;5058658;28;20113;-80
2022/12/21 13:30:47;;;;;;;92.45;35.15;;;;;;;;;;5058561;28;20077;-78
2022/12/21 13:33:14;;;;;;;82.78;32.47;;;;;;;;;;5024940;28;20032;-78
2022/12/21 13:35:49;;;;;;;106.82;37.72;;;;;;;;;;5042360;28;20024;-78
2022/12/21 13:38:23;;;;;;;93.18;37.05;;;;;;;;;;5042464;28;20350;-77
2022/12/21 13:40:54;;;;;;;98.40;37.35;;;;;;;;;;5041196;28;20047;-78
2022/12/21 13:43:23;;;;;;;94.25;38.55;;;;;;;;;;5056867;28;20024;-77
2022/12/21 13:46:09;;;;;;;86.80;32.17;;;;;;;;;;5039703;28;20116;-78
2022/12/21 13:48:42;;;;;;;71.03;27.05;;;;;;;;;;5052904;28;20048;-77
2022/12/21 13:51:29;;;;;;;77.13;28.35;;;;;;;;;;5052763;28;20036;-78
2022/12/21 13:54:02;;;;;;;91.30;32.58;;;;;;;;;;5052957;28;20033;-77
2022/12/21 13:56:36;;;;;;;79.35;30.88;;;;;;;;;;5054272;28;20032;-78
2022/12/21 13:59:06;;;;;;;79.45;28.63;;;;;;;;;;5055290;28;20028;-77
2022/12/21 14:01:42;;;;;;;74.73;25.67;;;;;;;;;;5025204;28;20396;-77
2022/12/21 14:04:17;;;;;;;73.88;27.10;;;;;;;;;;5039305;28;20040;-77
2022/12/21 14:06:54;;;;;;;68.03;25.40;;;;;;;;;;5037523;28;20037;-77
2022/12/21 14:09:41;;;;;;;76.43;28.83;;;;;;;;;;5037610;28;20029;-79
2022/12/21 14:12:09;;;;;;;84.20;29.02;;;;;;;;;;5007096;28;20366;-78
2022/12/21 14:15:25;;;;;;;77.78;27.15;;;;;;;;;;5055334;28;20457;-79
2022/12/21 14:17:51;;;;;;;75.63;27.55;;;;;;;;;;5000604;28;20119;-78
2022/12/21 14:20:30;;;;;;;88.43;28.58;;;;;;;;;;5037705;28;20024;-76
2022/12/21 14:22:57;;;;;;;75.65;26.80;;;;;;;;;;5055223;28;20028;-78
2022/12/21 14:25:40;;;;;;;86.32;29.13;;;;;;;;;;5021252;28;20470;-78
2022/12/21 14:28:17;;;;;;;74.57;26.70;;;;;;;;;;5022424;28;20036;-78
2022/12/21 14:31:03;;;;;;;82.85;29.27;;;;;;;;;;5005020;28;20055;-78
2022/12/21 14:33:40;;;;;;;82.50;29.63;;;;;;;;;;5006041;28;20036;-76
2022/12/21 14:36:10;;;;;;;80.15;27.33;;;;;;;;;;5005119;28;20119;-76
2022/12/21 14:38:36;;;;;;;72.70;25.50;;;;;;;;;;5037219;28;20116;-76
2022/12/21 14:41:07;;;;;;;67.60;23.67;;;;;;;;;;5020785;28;20132;-76
2022/12/21 14:43:46;;;;;;;61.08;22.08;;;;;;;;;;5055267;28;20037;-76
2022/12/21 14:46:27;;;;;;;72.63;25.85;;;;;;;;;;5022709;28;20060;-78
2022/12/21 14:49:23;;;;;;;63.75;22.70;;;;;;;;;;5021178;28;20029;-77
2022/12/21 14:51:50;;;;;;;71.72;24.23;;;;;;;;;;5038777;28;20422;-77
2022/12/21 14:54:22;;;;;;;70.35;23.42;;;;;;;;;;5021198;28;20206;-77
2022/12/21 14:57:10;;;;;;;66.45;24.27;;;;;;;;;;5037710;28;20036;-77